sensor_id;sensor_type;location;lat;lon;timestamp;pressure;altitude;pressure_sealevel;temperature
70415;BMP280;57837;52.064;113.478;2023-04-28T00:02:38;93615.16;;;20.09
70415;BMP280;57837;52.064;113.478;2023-04-28T00:05:42;93613.84;;;20.47
70415;BMP280;57837;52.064;113.478;2023-04-28T00:08:46;93612.25;;;19.56
70415;BMP280;57837;52.064;113.478;2023-04-28T00:11:49;93616.00;;;19.42
70415;BMP280;57837;52.064;113.478;2023-04-28T00:14:52;93609.75;;;19.27
70415;BMP280;57837;52.064;113.478;2023-04-28T00:17:56;93610.13;;;19.36
70415;BMP280;57837;52.064;113.478;2023-04-28T00:21:00;93610.81;;;20.43
70415;BMP280;57837;52.064;113.478;2023-04-28T00:24:03;93614.56;;;20.16
70415;BMP280;57837;52.064;113.478;2023-04-28T00:27:07;93610.75;;;19.98
70415;BMP280;57837;52.064;113.478;2023-04-28T00:30:11;93610.75;;;20.75
70415;BMP280;57837;52.064;113.478;2023-04-28T00:33:15;93609.78;;;21.18
70415;BMP280;57837;52.064;113.478;2023-04-28T00:36:18;93608.44;;;21.11
70415;BMP280;57837;52.064;113.478;2023-04-28T00:39:21;93607.84;;;21.65
70415;BMP280;57837;52.064;113.478;2023-04-28T00:42:24;93599.19;;;21.44
70415;BMP280;57837;52.064;113.478;2023-04-28T00:45:28;93609.47;;;22.02
70415;BMP280;57837;52.064;113.478;2023-04-28T00:48:31;93600.38;;;21.56
70415;BMP280;57837;52.064;113.478;2023-04-28T00:51:35;93594.91;;;20.94
70415;BMP280;57837;52.064;113.478;2023-04-28T00:54:39;93592.94;;;21.07
70415;BMP280;57837;52.064;113.478;2023-04-28T00:57:44;93587.91;;;20.96
70415;BMP280;57837;52.064;113.478;2023-04-28T01:00:48;93591.34;;;21.18
70415;BMP280;57837;52.064;113.478;2023-04-28T01:03:51;93585.44;;;21.72
70415;BMP280;57837;52.064;113.478;2023-04-28T01:06:57;93578.69;;;22.46
70415;BMP280;57837;52.064;113.478;2023-04-28T01:10:00;93580.28;;;22.77
70415;BMP280;57837;52.064;113.478;2023-04-28T01:13:06;93577.47;;;22.47
70415;BMP280;57837;52.064;113.478;2023-04-28T01:16:10;93579.50;;;22.61
70415;BMP280;57837;52.064;113.478;2023-04-28T01:19:19;93570.50;;;22.93
70415;BMP280;57837;52.064;113.478;2023-04-28T01:22:26;93568.03;;;22.31
70415;BMP280;57837;52.064;113.478;2023-04-28T01:25:29;93571.50;;;21.84
70415;BMP280;57837;52.064;113.478;2023-04-28T01:28:32;93575.72;;;21.67
70415;BMP280;57837;52.064;113.478;2023-04-28T01:31:36;93572.13;;;22.67
70415;BMP280;57837;52.064;113.478;2023-04-28T01:34:40;93567.03;;;23.05
70415;BMP280;57837;52.064;113.478;2023-04-28T01:37:43;93564.88;;;22.32
70415;BMP280;57837;52.064;113.478;2023-04-28T01:40:45;93565.31;;;22.44
70415;BMP280;57837;52.064;113.478;2023-04-28T01:43:49;93567.31;;;22.30
70415;BMP280;57837;52.064;113.478;2023-04-28T01:46:52;93564.91;;;22.40
70415;BMP280;57837;52.064;113.478;2023-04-28T01:49:56;93556.13;;;22.17
70415;BMP280;57837;52.064;113.478;2023-04-28T01:52:59;93556.03;;;22.50
70415;BMP280;57837;52.064;113.478;2023-04-28T01:56:02;93552.97;;;23.10
70415;BMP280;57837;52.064;113.478;2023-04-28T01:59:05;93550.91;;;22.52
70415;BMP280;57837;52.064;113.478;2023-04-28T02:02:09;93542.31;;;22.52
70415;BMP280;57837;52.064;113.478;2023-04-28T02:05:13;93542.50;;;22.82
70415;BMP280;57837;52.064;113.478;2023-04-28T02:08:17;93544.47;;;22.61
70415;BMP280;57837;52.064;113.478;2023-04-28T02:11:20;93542.28;;;22.24
70415;BMP280;57837;52.064;113.478;2023-04-28T02:14:29;93540.69;;;22.49
70415;BMP280;57837;52.064;113.478;2023-04-28T02:17:33;93532.22;;;22.43
70415;BMP280;57837;52.064;113.478;2023-04-28T02:20:37;93537.06;;;21.82
70415;BMP280;57837;52.064;113.478;2023-04-28T02:23:42;93530.47;;;22.17
70415;BMP280;57837;52.064;113.478;2023-04-28T02:26:46;93526.41;;;22.37
70415;BMP280;57837;52.064;113.478;2023-04-28T02:29:50;93519.72;;;22.15
70415;BMP280;57837;52.064;113.478;2023-04-28T02:32:55;93520.63;;;22.18
70415;BMP280;57837;52.064;113.478;2023-04-28T02:36:00;93515.59;;;21.78
70415;BMP280;57837;52.064;113.478;2023-04-28T02:39:04;93521.75;;;21.26
70415;BMP280;57837;52.064;113.478;2023-04-28T02:42:07;93516.53;;;20.34
70415;BMP280;57837;52.064;113.478;2023-04-28T02:45:11;93505.97;;;21.68
70415;BMP280;57837;52.064;113.478;2023-04-28T02:48:15;93507.84;;;22.01
70415;BMP280;57837;52.064;113.478;2023-04-28T02:51:18;93500.78;;;22.88
70415;BMP280;57837;52.064;113.478;2023-04-28T02:54:21;93504.38;;;22.34
70415;BMP280;57837;52.064;113.478;2023-04-28T02:57:31;93485.38;;;21.25
70415;BMP280;57837;52.064;113.478;2023-04-28T03:00:36;93489.75;;;19.22
70415;BMP280;57837;52.064;113.478;2023-04-28T03:03:41;93487.13;;;18.06
70415;BMP280;57837;52.064;113.478;2023-04-28T03:06:44;93482.94;;;18.94
70415;BMP280;57837;52.064;113.478;2023-04-28T03:09:49;93473.66;;;19.12
70415;BMP280;57837;52.064;113.478;2023-04-28T03:12:53;93478.13;;;18.01
70415;BMP280;57837;52.064;113.478;2023-04-28T03:15:57;93479.53;;;17.26
70415;BMP280;57837;52.064;113.478;2023-04-28T03:19:01;93479.06;;;16.64
70415;BMP280;57837;52.064;113.478;2023-04-28T03:22:06;93475.28;;;16.43
70415;BMP280;57837;52.064;113.478;2023-04-28T03:25:09;93488.13;;;16.24
70415;BMP280;57837;52.064;113.478;2023-04-28T03:28:20;93488.63;;;16.06
70415;BMP280;57837;52.064;113.478;2023-04-28T03:31:24;93477.34;;;16.84
70415;BMP280;57837;52.064;113.478;2023-04-28T03:34:27;93479.31;;;18.00
70415;BMP280;57837;52.064;113.478;2023-04-28T03:37:30;93477.00;;;17.91
70415;BMP280;57837;52.064;113.478;2023-04-28T03:40:34;93480.00;;;17.71
70415;BMP280;57837;52.064;113.478;2023-04-28T03:43:59;93482.94;;;17.56
70415;BMP280;57837;52.064;113.478;2023-04-28T03:47:08;93474.34;;;17.20
70415;BMP280;57837;52.064;113.478;2023-04-28T03:50:12;93479.31;;;17.24
70415;BMP280;57837;52.064;113.478;2023-04-28T03:53:15;93468.44;;;17.14
70415;BMP280;57837;52.064;113.478;2023-04-28T03:56:19;93467.34;;;16.82
70415;BMP280;57837;52.064;113.478;2023-04-28T03:59:24;93472.38;;;16.74
70415;BMP280;57837;52.064;113.478;2023-04-28T04:02:27;93462.84;;;16.71
70415;BMP280;57837;52.064;113.478;2023-04-28T04:05:30;93464.88;;;17.53
70415;BMP280;57837;52.064;113.478;2023-04-28T04:08:34;93467.19;;;17.62
70415;BMP280;57837;52.064;113.478;2023-04-28T04:11:38;93464.31;;;17.24
70415;BMP280;57837;52.064;113.478;2023-04-28T04:14:42;93464.03;;;16.82
70415;BMP280;57837;52.064;113.478;2023-04-28T04:17:45;93464.75;;;16.71
70415;BMP280;57837;52.064;113.478;2023-04-28T04:20:49;93457.13;;;16.90
70415;BMP280;57837;52.064;113.478;2023-04-28T04:23:56;93435.63;;;17.49
70415;BMP280;57837;52.064;113.478;2023-04-28T04:27:00;93442.16;;;17.72
70415;BMP280;57837;52.064;113.478;2023-04-28T04:30:11;93438.22;;;18.38
70415;BMP280;57837;52.064;113.478;2023-04-28T04:33:15;93440.81;;;17.19
70415;BMP280;57837;52.064;113.478;2023-04-28T04:36:19;93431.78;;;16.51
70415;BMP280;57837;52.064;113.478;2023-04-28T04:39:46;93453.22;;;15.88
70415;BMP280;57837;52.064;113.478;2023-04-28T04:42:50;93443.97;;;15.82
70415;BMP280;57837;52.064;113.478;2023-04-28T04:45:55;93437.78;;;15.91
70415;BMP280;57837;52.064;113.478;2023-04-28T04:48:58;93436.34;;;16.17
70415;BMP280;57837;52.064;113.478;2023-04-28T04:52:02;93436.38;;;16.28
70415;BMP280;57837;52.064;113.478;2023-04-28T04:55:07;93432.97;;;16.50
70415;BMP280;57837;52.064;113.478;2023-04-28T04:58:12;93427.97;;;16.63
70415;BMP280;57837;52.064;113.478;2023-04-28T05:01:34;93423.41;;;16.75
70415;BMP280;57837;52.064;113.478;2023-04-28T05:05:02;93427.75;;;16.45
70415;BMP280;57837;52.064;113.478;2023-04-28T05:08:34;93415.81;;;16.66
70415;BMP280;57837;52.064;113.478;2023-04-28T05:11:38;93418.44;;;16.60
70415;BMP280;57837;52.064;113.478;2023-04-28T05:14:42;93407.13;;;17.04
70415;BMP280;57837;52.064;113.478;2023-04-28T05:17:46;93414.75;;;17.43
70415;BMP280;57837;52.064;113.478;2023-04-28T05:20:50;93407.06;;;17.81
70415;BMP280;57837;52.064;113.478;2023-04-28T05:24:17;93409.34;;;18.19
70415;BMP280;57837;52.064;113.478;2023-04-28T05:27:25;93410.22;;;18.03
70415;BMP280;57837;52.064;113.478;2023-04-28T05:30:53;93408.41;;;16.75
70415;BMP280;57837;52.064;113.478;2023-04-28T05:34:20;93421.84;;;15.50
70415;BMP280;57837;52.064;113.478;2023-04-28T05:37:23;93420.09;;;15.08
70415;BMP280;57837;52.064;113.478;2023-04-28T05:40:28;93415.19;;;15.37
70415;BMP280;57837;52.064;113.478;2023-04-28T05:43:32;93422.31;;;15.48
70415;BMP280;57837;52.064;113.478;2023-04-28T05:47:00;93423.78;;;15.66
70415;BMP280;57837;52.064;113.478;2023-04-28T05:50:07;93423.75;;;15.49
70415;BMP280;57837;52.064;113.478;2023-04-28T05:53:11;93434.16;;;15.27
70415;BMP280;57837;52.064;113.478;2023-04-28T05:56:15;93434.44;;;15.46
70415;BMP280;57837;52.064;113.478;2023-04-28T05:59:20;93430.66;;;16.02
70415;BMP280;57837;52.064;113.478;2023-04-28T06:02:24;93448.72;;;16.00
70415;BMP280;57837;52.064;113.478;2023-04-28T06:05:30;93438.50;;;15.97
70415;BMP280;57837;52.064;113.478;2023-04-28T06:08:34;93437.00;;;16.57
70415;BMP280;57837;52.064;113.478;2023-04-28T06:11:39;93425.41;;;16.36
70415;BMP280;57837;52.064;113.478;2023-04-28T06:14:43;93435.66;;;16.11
70415;BMP280;57837;52.064;113.478;2023-04-28T06:17:47;93433.28;;;15.74
70415;BMP280;57837;52.064;113.478;2023-04-28T06:21:16;93429.22;;;15.46
70415;BMP280;57837;52.064;113.478;2023-04-28T06:24:19;93414.72;;;15.44
70415;BMP280;57837;52.064;113.478;2023-04-28T06:27:27;93411.44;;;15.55
70415;BMP280;57837;52.064;113.478;2023-04-28T06:30:31;93400.97;;;15.44
70415;BMP280;57837;52.064;113.478;2023-04-28T06:33:37;93402.88;;;15.49
70415;BMP280;57837;52.064;113.478;2023-04-28T06:36:40;93402.19;;;15.54
70415;BMP280;57837;52.064;113.478;2023-04-28T06:39:45;93391.72;;;15.87
70415;BMP280;57837;52.064;113.478;2023-04-28T06:43:12;93391.03;;;16.04
70415;BMP280;57837;52.064;113.478;2023-04-28T06:46:28;93395.72;;;16.39
70415;BMP280;57837;52.064;113.478;2023-04-28T06:49:33;93392.97;;;16.72
70415;BMP280;57837;52.064;113.478;2023-04-28T06:52:36;93390.56;;;16.85
70415;BMP280;57837;52.064;113.478;2023-04-28T06:55:43;93400.72;;;16.94
70415;BMP280;57837;52.064;113.478;2023-04-28T06:58:47;93400.13;;;16.66
70415;BMP280;57837;52.064;113.478;2023-04-28T07:01:51;93410.25;;;16.17
70415;BMP280;57837;52.064;113.478;2023-04-28T07:04:55;93410.25;;;14.80
70415;BMP280;57837;52.064;113.478;2023-04-28T07:07:59;93414.25;;;14.28
70415;BMP280;57837;52.064;113.478;2023-04-28T07:11:03;93405.47;;;14.25
70415;BMP280;57837;52.064;113.478;2023-04-28T07:14:07;93408.41;;;13.76
70415;BMP280;57837;52.064;113.478;2023-04-28T07:17:10;93402.22;;;13.21
70415;BMP280;57837;52.064;113.478;2023-04-28T07:20:13;93407.69;;;13.03
70415;BMP280;57837;52.064;113.478;2023-04-28T07:23:17;93403.53;;;13.11
70415;BMP280;57837;52.064;113.478;2023-04-28T07:26:20;93400.22;;;12.91
70415;BMP280;57837;52.064;113.478;2023-04-28T07:29:25;93399.22;;;12.88
70415;BMP280;57837;52.064;113.478;2023-04-28T07:32:31;93397.75;;;13.02
70415;BMP280;57837;52.064;113.478;2023-04-28T07:35:35;93396.75;;;13.19
70415;BMP280;57837;52.064;113.478;2023-04-28T07:38:38;93394.59;;;13.38
70415;BMP280;57837;52.064;113.478;2023-04-28T07:41:42;93391.25;;;13.58
70415;BMP280;57837;52.064;113.478;2023-04-28T07:44:46;93392.03;;;13.64
70415;BMP280;57837;52.064;113.478;2023-04-28T07:47:50;93386.94;;;13.55
70415;BMP280;57837;52.064;113.478;2023-04-28T07:50:54;93392.75;;;13.44
70415;BMP280;57837;52.064;113.478;2023-04-28T07:53:58;93393.66;;;13.67
70415;BMP280;57837;52.064;113.478;2023-04-28T07:57:01;93387.69;;;13.87
70415;BMP280;57837;52.064;113.478;2023-04-28T08:00:08;93383.72;;;13.91
70415;BMP280;57837;52.064;113.478;2023-04-28T08:03:13;93377.91;;;14.07
70415;BMP280;57837;52.064;113.478;2023-04-28T08:06:19;93385.94;;;14.41
70415;BMP280;57837;52.064;113.478;2023-04-28T08:09:22;93384.06;;;14.47
70415;BMP280;57837;52.064;113.478;2023-04-28T08:12:26;93377.78;;;14.76
70415;BMP280;57837;52.064;113.478;2023-04-28T08:15:30;93375.53;;;15.00
70415;BMP280;57837;52.064;113.478;2023-04-28T08:18:34;93391.56;;;14.87
70415;BMP280;57837;52.064;113.478;2023-04-28T08:21:39;93388.56;;;14.52
70415;BMP280;57837;52.064;113.478;2023-04-28T08:24:43;93389.97;;;14.05
70415;BMP280;57837;52.064;113.478;2023-04-28T08:27:47;93395.97;;;13.85
70415;BMP280;57837;52.064;113.478;2023-04-28T08:30:50;93395.59;;;13.72
70415;BMP280;57837;52.064;113.478;2023-04-28T08:33:55;93384.84;;;13.85
70415;BMP280;57837;52.064;113.478;2023-04-28T08:36:59;93391.53;;;13.91
70415;BMP280;57837;52.064;113.478;2023-04-28T08:40:04;93389.88;;;13.94
70415;BMP280;57837;52.064;113.478;2023-04-28T08:43:11;93394.00;;;14.06
70415;BMP280;57837;52.064;113.478;2023-04-28T08:46:17;93397.91;;;13.90
70415;BMP280;57837;52.064;113.478;2023-04-28T08:49:32;93402.44;;;13.69
70415;BMP280;57837;52.064;113.478;2023-04-28T08:52:38;93408.09;;;13.62
70415;BMP280;57837;52.064;113.478;2023-04-28T08:55:43;93395.66;;;13.52
70415;BMP280;57837;52.064;113.478;2023-04-28T08:58:48;93395.28;;;13.39
70415;BMP280;57837;52.064;113.478;2023-04-28T09:01:52;93400.69;;;13.55
70415;BMP280;57837;52.064;113.478;2023-04-28T09:04:57;93398.53;;;13.54
70415;BMP280;57837;52.064;113.478;2023-04-28T09:08:01;93390.28;;;13.55
70415;BMP280;57837;52.064;113.478;2023-04-28T09:14:11;93397.84;;;13.33
70415;BMP280;57837;52.064;113.478;2023-04-28T09:17:16;93392.81;;;13.24
70415;BMP280;57837;52.064;113.478;2023-04-28T09:20:24;93399.25;;;13.08
70415;BMP280;57837;52.064;113.478;2023-04-28T09:23:28;93398.41;;;12.97
70415;BMP280;57837;52.064;113.478;2023-04-28T09:26:47;93390.94;;;13.04
70415;BMP280;57837;52.064;113.478;2023-04-28T09:29:55;93392.69;;;13.13
70415;BMP280;57837;52.064;113.478;2023-04-28T09:33:05;93394.34;;;13.16
70415;BMP280;57837;52.064;113.478;2023-04-28T09:36:25;93400.63;;;13.04
70415;BMP280;57837;52.064;113.478;2023-04-28T09:39:31;93386.50;;;12.90
70415;BMP280;57837;52.064;113.478;2023-04-28T09:42:42;93400.66;;;12.89
70415;BMP280;57837;52.064;113.478;2023-04-28T09:45:46;93406.19;;;12.56
70415;BMP280;57837;52.064;113.478;2023-04-28T09:49:00;93405.84;;;12.69
70415;BMP280;57837;52.064;113.478;2023-04-28T09:52:12;93408.72;;;12.91
70415;BMP280;57837;52.064;113.478;2023-04-28T09:55:16;93410.94;;;12.98
70415;BMP280;57837;52.064;113.478;2023-04-28T09:58:21;93411.31;;;13.11
70415;BMP280;57837;52.064;113.478;2023-04-28T10:01:32;93416.84;;;13.19
70415;BMP280;57837;52.064;113.478;2023-04-28T10:04:39;93420.25;;;13.05
70415;BMP280;57837;52.064;113.478;2023-04-28T10:07:43;93430.09;;;12.80
70415;BMP280;57837;52.064;113.478;2023-04-28T10:10:48;93428.63;;;12.59
70415;BMP280;57837;52.064;113.478;2023-04-28T10:13:55;93429.56;;;12.41
70415;BMP280;57837;52.064;113.478;2023-04-28T10:16:59;93428.03;;;12.35
70415;BMP280;57837;52.064;113.478;2023-04-28T10:20:07;93441.91;;;12.32
70415;BMP280;57837;52.064;113.478;2023-04-28T10:36:48;93456.41;;;11.80
70415;BMP280;57837;52.064;113.478;2023-04-28T10:40:31;93453.44;;;11.57
70415;BMP280;57837;52.064;113.478;2023-04-28T10:43:38;93458.69;;;11.25
70415;BMP280;57837;52.064;113.478;2023-04-28T10:47:05;93464.09;;;11.12
70415;BMP280;57837;52.064;113.478;2023-04-28T10:50:11;93466.31;;;11.04
70415;BMP280;57837;52.064;113.478;2023-04-28T10:53:14;93466.75;;;10.94
70415;BMP280;57837;52.064;113.478;2023-04-28T10:56:23;93466.81;;;10.85
70415;BMP280;57837;52.064;113.478;2023-04-28T10:59:27;93476.06;;;10.76
70415;BMP280;57837;52.064;113.478;2023-04-28T11:02:35;93474.25;;;10.59
70415;BMP280;57837;52.064;113.478;2023-04-28T11:06:20;93483.78;;;10.44
70415;BMP280;57837;52.064;113.478;2023-04-28T11:12:34;93489.16;;;9.85
70415;BMP280;57837;52.064;113.478;2023-04-28T11:15:38;93489.91;;;9.77
70415;BMP280;57837;52.064;113.478;2023-04-28T11:18:52;93495.22;;;9.64
70415;BMP280;57837;52.064;113.478;2023-04-28T11:22:04;93501.09;;;9.46
70415;BMP280;57837;52.064;113.478;2023-04-28T11:25:13;93502.75;;;9.31
70415;BMP280;57837;52.064;113.478;2023-04-28T11:28:16;93505.03;;;9.20
70415;BMP280;57837;52.064;113.478;2023-04-28T11:31:21;93509.41;;;9.01
70415;BMP280;57837;52.064;113.478;2023-04-28T11:34:26;93512.41;;;8.91
70415;BMP280;57837;52.064;113.478;2023-04-28T11:37:29;93520.25;;;8.87
70415;BMP280;57837;52.064;113.478;2023-04-28T11:40:33;93519.63;;;8.74
70415;BMP280;57837;52.064;113.478;2023-04-28T11:43:37;93520.75;;;8.73
70415;BMP280;57837;52.064;113.478;2023-04-28T11:46:50;93524.19;;;8.70
70415;BMP280;57837;52.064;113.478;2023-04-28T11:49:58;93520.78;;;8.51
70415;BMP280;57837;52.064;113.478;2023-04-28T11:53:02;93524.19;;;8.48
70415;BMP280;57837;52.064;113.478;2023-04-28T11:56:06;93526.31;;;8.41
70415;BMP280;57837;52.064;113.478;2023-04-28T11:59:11;93527.75;;;8.20
70415;BMP280;57837;52.064;113.478;2023-04-28T12:02:15;93526.75;;;8.05
70415;BMP280;57837;52.064;113.478;2023-04-28T12:05:26;93524.66;;;7.90
70415;BMP280;57837;52.064;113.478;2023-04-28T12:08:30;93525.69;;;7.80
70415;BMP280;57837;52.064;113.478;2023-04-28T12:11:34;93531.78;;;7.74
70415;BMP280;57837;52.064;113.478;2023-04-28T12:15:01;93533.97;;;7.75
70415;BMP280;57837;52.064;113.478;2023-04-28T12:18:10;93534.06;;;7.72
70415;BMP280;57837;52.064;113.478;2023-04-28T12:21:21;93542.19;;;7.70
70415;BMP280;57837;52.064;113.478;2023-04-28T12:24:24;93543.75;;;7.68
70415;BMP280;57837;52.064;113.478;2023-04-28T12:27:29;93547.19;;;7.65
70415;BMP280;57837;52.064;113.478;2023-04-28T12:30:36;93543.16;;;7.64
70415;BMP280;57837;52.064;113.478;2023-04-28T12:33:46;93547.69;;;7.59
70415;BMP280;57837;52.064;113.478;2023-04-28T12:36:50;93545.44;;;7.49
70415;BMP280;57837;52.064;113.478;2023-04-28T12:39:54;93547.81;;;7.43
70415;BMP280;57837;52.064;113.478;2023-04-28T12:42:57;93547.09;;;7.43
70415;BMP280;57837;52.064;113.478;2023-04-28T12:46:01;93555.75;;;7.36
70415;BMP280;57837;52.064;113.478;2023-04-28T12:49:06;93554.72;;;7.34
70415;BMP280;57837;52.064;113.478;2023-04-28T12:52:10;93551.63;;;7.26
70415;BMP280;57837;52.064;113.478;2023-04-28T12:55:13;93560.75;;;7.14
70415;BMP280;57837;52.064;113.478;2023-04-28T12:58:17;93554.81;;;7.05
70415;BMP280;57837;52.064;113.478;2023-04-28T13:01:21;93558.06;;;6.93
70415;BMP280;57837;52.064;113.478;2023-04-28T13:04:24;93566.28;;;6.88
70415;BMP280;57837;52.064;113.478;2023-04-28T13:07:28;93566.81;;;6.82
70415;BMP280;57837;52.064;113.478;2023-04-28T13:10:32;93575.75;;;6.78
70415;BMP280;57837;52.064;113.478;2023-04-28T13:13:35;93569.16;;;6.77
70415;BMP280;57837;52.064;113.478;2023-04-28T13:16:40;93568.53;;;6.73
70415;BMP280;57837;52.064;113.478;2023-04-28T13:19:44;93564.63;;;6.68
70415;BMP280;57837;52.064;113.478;2023-04-28T13:22:48;93573.53;;;6.64
70415;BMP280;57837;52.064;113.478;2023-04-28T13:25:52;93572.69;;;6.54
70415;BMP280;57837;52.064;113.478;2023-04-28T13:28:55;93566.38;;;6.42
70415;BMP280;57837;52.064;113.478;2023-04-28T13:31:59;93574.56;;;6.37
70415;BMP280;57837;52.064;113.478;2023-04-28T13:35:04;93585.38;;;6.45
70415;BMP280;57837;52.064;113.478;2023-04-28T13:38:07;93585.09;;;6.43
70415;BMP280;57837;52.064;113.478;2023-04-28T13:41:10;93577.47;;;6.39
70415;BMP280;57837;52.064;113.478;2023-04-28T13:44:14;93571.53;;;6.42
70415;BMP280;57837;52.064;113.478;2023-04-28T13:47:18;93566.84;;;6.37
70415;BMP280;57837;52.064;113.478;2023-04-28T13:50:21;93568.78;;;6.33
70415;BMP280;57837;52.064;113.478;2023-04-28T13:53:25;93571.03;;;6.31
70415;BMP280;57837;52.064;113.478;2023-04-28T13:56:30;93574.66;;;6.34
70415;BMP280;57837;52.064;113.478;2023-04-28T13:59:34;93578.25;;;6.36
70415;BMP280;57837;52.064;113.478;2023-04-28T14:02:38;93570.06;;;6.41
70415;BMP280;57837;52.064;113.478;2023-04-28T14:05:42;93567.19;;;6.39
70415;BMP280;57837;52.064;113.478;2023-04-28T14:08:50;93566.66;;;6.44
70415;BMP280;57837;52.064;113.478;2023-04-28T14:11:54;93575.03;;;6.49
70415;BMP280;57837;52.064;113.478;2023-04-28T14:14:58;93574.72;;;6.47
70415;BMP280;57837;52.064;113.478;2023-04-28T14:18:03;93575.28;;;6.54
70415;BMP280;57837;52.064;113.478;2023-04-28T14:21:06;93571.81;;;6.73
70415;BMP280;57837;52.064;113.478;2023-04-28T14:24:09;93571.97;;;6.82
70415;BMP280;57837;52.064;113.478;2023-04-28T14:27:13;93572.16;;;6.88
70415;BMP280;57837;52.064;113.478;2023-04-28T14:30:19;93571.44;;;6.88
70415;BMP280;57837;52.064;113.478;2023-04-28T14:33:23;93568.63;;;6.69
70415;BMP280;57837;52.064;113.478;2023-04-28T14:36:26;93569.03;;;6.68
70415;BMP280;57837;52.064;113.478;2023-04-28T14:39:29;93558.50;;;6.62
70415;BMP280;57837;52.064;113.478;2023-04-28T14:42:35;93564.44;;;6.59
70415;BMP280;57837;52.064;113.478;2023-04-28T14:45:38;93569.41;;;6.54
70415;BMP280;57837;52.064;113.478;2023-04-28T14:48:42;93567.25;;;6.52
70415;BMP280;57837;52.064;113.478;2023-04-28T14:51:48;93570.94;;;6.51
70415;BMP280;57837;52.064;113.478;2023-04-28T14:54:52;93568.13;;;6.45
70415;BMP280;57837;52.064;113.478;2023-04-28T14:57:56;93564.88;;;6.29
70415;BMP280;57837;52.064;113.478;2023-04-28T15:00:59;93566.91;;;6.21
70415;BMP280;57837;52.064;113.478;2023-04-28T15:04:03;93563.53;;;6.08
70415;BMP280;57837;52.064;113.478;2023-04-28T15:07:07;93561.44;;;6.03
70415;BMP280;57837;52.064;113.478;2023-04-28T15:10:11;93552.47;;;5.95
70415;BMP280;57837;52.064;113.478;2023-04-28T15:13:15;93554.31;;;5.94
70415;BMP280;57837;52.064;113.478;2023-04-28T15:16:19;93557.94;;;5.97
70415;BMP280;57837;52.064;113.478;2023-04-28T15:19:23;93556.16;;;5.94
70415;BMP280;57837;52.064;113.478;2023-04-28T15:22:26;93551.19;;;5.87
70415;BMP280;57837;52.064;113.478;2023-04-28T15:25:30;93553.19;;;5.79
70415;BMP280;57837;52.064;113.478;2023-04-28T15:28:34;93552.53;;;5.75
70415;BMP280;57837;52.064;113.478;2023-04-28T15:31:38;93553.91;;;5.63
70415;BMP280;57837;52.064;113.478;2023-04-28T15:34:43;93543.88;;;5.53
70415;BMP280;57837;52.064;113.478;2023-04-28T15:37:48;93557.28;;;5.44
70415;BMP280;57837;52.064;113.478;2023-04-28T15:40:54;93563.34;;;5.34
70415;BMP280;57837;52.064;113.478;2023-04-28T15:43:58;93560.84;;;5.30
70415;BMP280;57837;52.064;113.478;2023-04-28T15:47:02;93560.78;;;5.34
70415;BMP280;57837;52.064;113.478;2023-04-28T15:50:08;93562.97;;;5.36
70415;BMP280;57837;52.064;113.478;2023-04-28T15:53:13;93564.53;;;5.29
70415;BMP280;57837;52.064;113.478;2023-04-28T15:56:17;93555.06;;;5.26
70415;BMP280;57837;52.064;113.478;2023-04-28T15:59:21;93556.19;;;5.25
70415;BMP280;57837;52.064;113.478;2023-04-28T16:02:26;93557.13;;;5.15
70415;BMP280;57837;52.064;113.478;2023-04-28T16:05:33;93556.63;;;5.04
70415;BMP280;57837;52.064;113.478;2023-04-28T16:08:36;93552.13;;;4.92
70415;BMP280;57837;52.064;113.478;2023-04-28T16:11:40;93550.47;;;4.82
70415;BMP280;57837;52.064;113.478;2023-04-28T16:14:47;93558.53;;;4.80
70415;BMP280;57837;52.064;113.478;2023-04-28T16:17:53;93551.56;;;4.61
70415;BMP280;57837;52.064;113.478;2023-04-28T16:20:59;93555.50;;;4.46
70415;BMP280;57837;52.064;113.478;2023-04-28T16:24:03;93560.31;;;4.20
70415;BMP280;57837;52.064;113.478;2023-04-28T16:27:08;93560.31;;;3.97
70415;BMP280;57837;52.064;113.478;2023-04-28T16:30:12;93558.63;;;3.87
70415;BMP280;57837;52.064;113.478;2023-04-28T16:33:16;93555.00;;;3.84
70415;BMP280;57837;52.064;113.478;2023-04-28T16:36:20;93557.25;;;3.82
70415;BMP280;57837;52.064;113.478;2023-04-28T16:39:24;93556.84;;;3.84
70415;BMP280;57837;52.064;113.478;2023-04-28T16:42:28;93549.72;;;3.95
70415;BMP280;57837;52.064;113.478;2023-04-28T16:45:31;93547.75;;;4.06
70415;BMP280;57837;52.064;113.478;2023-04-28T16:48:35;93551.63;;;4.14
70415;BMP280;57837;52.064;113.478;2023-04-28T16:51:38;93553.25;;;4.05
70415;BMP280;57837;52.064;113.478;2023-04-28T16:54:42;93560.44;;;3.90
70415;BMP280;57837;52.064;113.478;2023-04-28T16:57:45;93556.75;;;3.91
70415;BMP280;57837;52.064;113.478;2023-04-28T17:00:48;93557.75;;;3.97
70415;BMP280;57837;52.064;113.478;2023-04-28T17:03:52;93557.34;;;3.99
70415;BMP280;57837;52.064;113.478;2023-04-28T17:06:57;93548.22;;;3.98
70415;BMP280;57837;52.064;113.478;2023-04-28T17:10:00;93553.00;;;3.96
70415;BMP280;57837;52.064;113.478;2023-04-28T17:13:04;93545.84;;;3.87
70415;BMP280;57837;52.064;113.478;2023-04-28T17:16:10;93545.56;;;3.81
70415;BMP280;57837;52.064;113.478;2023-04-28T17:19:14;93542.44;;;3.70
70415;BMP280;57837;52.064;113.478;2023-04-28T17:22:19;93542.41;;;3.47
70415;BMP280;57837;52.064;113.478;2023-04-28T17:25:22;93552.06;;;3.32
70415;BMP280;57837;52.064;113.478;2023-04-28T17:28:26;93536.88;;;3.22
70415;BMP280;57837;52.064;113.478;2023-04-28T17:31:30;93535.44;;;3.21
70415;BMP280;57837;52.064;113.478;2023-04-28T17:34:34;93537.75;;;3.38
70415;BMP280;57837;52.064;113.478;2023-04-28T17:37:37;93539.00;;;3.54
70415;BMP280;57837;52.064;113.478;2023-04-28T17:40:41;93535.91;;;3.66
70415;BMP280;57837;52.064;113.478;2023-04-28T17:43:50;93533.00;;;3.64
70415;BMP280;57837;52.064;113.478;2023-04-28T17:46:54;93528.06;;;3.53